createdAt,value
2022-12-03T00:00:07.487Z,17.50
2022-12-03T00:00:34.006Z,19.80
2022-12-03T00:01:04.574Z,19.20
2022-12-03T00:01:35.188Z,18.80
2022-12-03T00:02:05.879Z,15.60
2022-12-03T00:02:36.618Z,17.80
2022-12-03T00:03:07.455Z,15.90
2022-12-03T00:03:38.171Z,17.00
2022-12-03T00:04:08.850Z,16.80
2022-12-03T00:04:39.436Z,19.60
2022-12-03T00:05:10.048Z,19.00
2022-12-03T00:05:48.325Z,18.20
2022-12-03T00:06:11.394Z,15.70
2022-12-03T00:06:41.965Z,19.80
2022-12-03T00:07:12.539Z,17.60
2022-12-03T00:07:43.238Z,20.70
2022-12-03T00:08:13.909Z,18.00
2022-12-03T00:08:44.491Z,19.80
2022-12-03T00:09:15.076Z,16.90
2022-12-03T00:09:45.655Z,18.40
2022-12-03T00:10:16.244Z,17.00
2022-12-03T00:10:46.821Z,19.40
2022-12-03T00:11:17.404Z,16.90
2022-12-03T00:11:47.984Z,18.40
2022-12-03T00:12:18.559Z,18.20
2022-12-03T00:12:49.135Z,17.00
2022-12-03T00:13:19.725Z,18.50
2022-12-03T00:13:50.325Z,16.30
2022-12-03T00:14:20.932Z,17.40
2022-12-03T00:14:51.478Z,19.60
2022-12-03T00:15:22.069Z,20.00
2022-12-03T00:15:52.747Z,18.40
2022-12-03T00:16:23.389Z,20.60
2022-12-03T00:16:53.991Z,18.90
2022-12-03T00:17:24.597Z,21.00
2022-12-03T00:17:55.187Z,18.10
2022-12-03T00:18:25.809Z,16.20
2022-12-03T00:18:56.394Z,18.80
2022-12-03T00:19:26.963Z,20.40
2022-12-03T00:19:57.545Z,20.40
2022-12-03T00:20:28.122Z,18.90
2022-12-03T00:20:58.698Z,21.10
2022-12-03T00:21:29.293Z,16.70
2022-12-03T00:21:59.877Z,18.50
2022-12-03T00:22:30.452Z,22.10
2022-12-03T00:23:01.019Z,21.70
2022-12-03T00:23:33.189Z,19.10
2022-12-03T00:24:02.286Z,16.80
2022-12-03T00:24:32.851Z,19.70
2022-12-03T00:25:03.418Z,23.50
2022-12-03T00:25:33.980Z,18.90
2022-12-03T00:26:04.576Z,21.20
2022-12-03T00:26:35.160Z,24.00
2022-12-03T00:27:05.744Z,19.90
2022-12-03T00:27:36.336Z,20.00
2022-12-03T00:28:06.901Z,19.00
2022-12-03T00:28:37.480Z,19.70
2022-12-03T00:29:08.094Z,22.00
2022-12-03T00:29:38.706Z,19.60
2022-12-03T00:30:09.271Z,21.80
2022-12-03T00:30:40.030Z,17.80
2022-12-03T00:31:10.697Z,21.40
2022-12-03T00:31:41.397Z,19.70
2022-12-03T00:32:12.027Z,22.60
2022-12-03T00:32:42.607Z,20.00
2022-12-03T00:33:13.172Z,17.60
2022-12-03T00:33:43.755Z,19.90
2022-12-03T00:34:14.340Z,19.20
2022-12-03T00:34:44.906Z,20.20
2022-12-03T00:35:15.484Z,20.90
2022-12-03T00:35:46.092Z,20.10
2022-12-03T00:36:16.665Z,21.90
2022-12-03T00:36:47.265Z,21.90
2022-12-03T00:37:17.849Z,19.70
2022-12-03T00:37:48.407Z,21.60
2022-12-03T00:38:19.006Z,21.30
2022-12-03T00:38:49.566Z,20.50
2022-12-03T00:39:20.174Z,20.80
2022-12-03T00:39:50.747Z,21.10
2022-12-03T00:40:21.339Z,21.50
2022-12-03T00:40:51.986Z,21.50
2022-12-03T00:41:22.553Z,18.10
2022-12-03T00:41:53.110Z,20.90
2022-12-03T00:42:23.696Z,21.30
2022-12-03T00:42:54.277Z,24.00
2022-12-03T00:43:24.856Z,25.90
2022-12-03T00:43:55.465Z,19.50
2022-12-03T00:44:26.064Z,22.70
2022-12-03T00:44:56.655Z,19.50
2022-12-03T00:45:27.225Z,19.70
2022-12-03T00:45:57.844Z,22.40
2022-12-03T00:46:28.552Z,22.40
2022-12-03T00:46:59.222Z,22.80
2022-12-03T00:47:29.777Z,22.00
2022-12-03T00:48:00.351Z,23.20
2022-12-03T00:48:30.930Z,22.50
2022-12-03T00:49:01.511Z,20.40
2022-12-03T00:49:32.084Z,20.60
2022-12-03T00:50:02.670Z,21.20
2022-12-03T00:50:33.274Z,23.70
2022-12-03T00:51:03.863Z,19.90
2022-12-03T00:51:34.474Z,21.90
2022-12-03T00:52:05.053Z,24.10
2022-12-03T00:52:35.637Z,19.90
2022-12-03T00:53:06.231Z,24.20
2022-12-03T00:53:36.815Z,24.10
2022-12-03T00:54:07.402Z,23.70
2022-12-03T00:54:37.982Z,23.40
2022-12-03T00:55:08.588Z,23.50
2022-12-03T00:55:39.173Z,26.60
2022-12-03T00:56:09.758Z,21.60
2022-12-03T00:56:40.365Z,25.70
2022-12-03T00:57:10.947Z,23.80
2022-12-03T00:57:41.523Z,24.00
2022-12-03T00:58:12.120Z,24.20
2022-12-03T00:58:42.704Z,24.60
2022-12-03T00:59:13.293Z,25.10
2022-12-03T00:59:43.880Z,23.60
2022-12-03T01:00:14.490Z,25.90
2022-12-03T01:00:45.053Z,24.50
2022-12-03T01:01:15.722Z,20.30
2022-12-03T01:01:46.368Z,22.90
2022-12-03T01:02:17.060Z,23.50
2022-12-03T01:02:47.673Z,23.60
2022-12-03T01:03:18.254Z,25.00
2022-12-03T01:03:48.846Z,25.10
2022-12-03T01:04:19.471Z,20.70
2022-12-03T01:04:50.321Z,22.10
2022-12-03T01:05:21.006Z,20.80
2022-12-03T01:05:51.584Z,27.90
2022-12-03T01:06:22.157Z,23.50
2022-12-03T01:06:52.731Z,24.10
2022-12-03T01:07:23.362Z,23.20
2022-12-03T01:07:54.015Z,23.20
2022-12-03T01:08:24.577Z,21.40
2022-12-03T01:08:55.164Z,22.20
2022-12-03T01:09:25.789Z,21.60
2022-12-03T01:09:56.384Z,26.10
2022-12-03T01:10:26.979Z,25.30
2022-12-03T01:10:57.558Z,23.20
2022-12-03T01:11:28.142Z,26.40
2022-12-03T01:11:58.728Z,22.70
2022-12-03T01:12:29.298Z,26.60
2022-12-03T01:12:59.885Z,25.50
2022-12-03T01:13:30.460Z,24.60
2022-12-03T01:14:01.039Z,23.70
2022-12-03T01:14:31.611Z,25.00
2022-12-03T01:15:02.225Z,24.40
2022-12-03T01:15:32.850Z,25.50
2022-12-03T01:16:03.446Z,24.00
2022-12-03T01:16:34.089Z,26.00
2022-12-03T01:17:04.705Z,24.30
2022-12-03T01:17:35.255Z,25.80
2022-12-03T01:18:05.859Z,22.60
2022-12-03T01:18:36.464Z,22.90
2022-12-03T01:19:07.059Z,22.70
2022-12-03T01:19:37.661Z,25.20
2022-12-03T01:20:08.251Z,21.50
2022-12-03T01:20:38.822Z,27.20
2022-12-03T01:21:09.401Z,24.20
2022-12-03T01:21:39.966Z,20.90
2022-12-03T01:22:10.546Z,23.60
2022-12-03T01:22:41.136Z,24.80
2022-12-03T01:23:11.690Z,22.90
2022-12-03T01:23:42.293Z,22.60
2022-12-03T01:24:12.870Z,24.20
2022-12-03T01:24:43.425Z,24.70
2022-12-03T01:25:14.002Z,22.70
2022-12-03T01:25:44.606Z,23.40
2022-12-03T01:26:15.157Z,24.30
2022-12-03T01:26:45.724Z,22.70
2022-12-03T01:27:16.346Z,21.60
2022-12-03T01:27:46.939Z,25.10
2022-12-03T01:28:17.560Z,25.80
2022-12-03T01:28:48.132Z,22.10
2022-12-03T01:29:18.725Z,24.20
2022-12-03T01:29:49.298Z,21.50
2022-12-03T01:30:19.864Z,27.70
2022-12-03T01:30:50.572Z,25.10
2022-12-03T01:31:21.197Z,24.00
2022-12-03T01:31:51.835Z,25.60
2022-12-03T01:32:22.406Z,21.70
2022-12-03T01:32:52.975Z,23.40
2022-12-03T01:33:23.553Z,23.80
2022-12-03T01:33:54.132Z,22.90
2022-12-03T01:34:24.722Z,28.60
2022-12-03T01:34:55.752Z,23.50
2022-12-03T01:35:26.091Z,24.50
2022-12-03T01:35:56.686Z,29.70
2022-12-03T01:36:27.272Z,24.40
2022-12-03T01:36:57.840Z,25.20
2022-12-03T01:37:28.405Z,30.10
2022-12-03T01:37:58.999Z,28.30
2022-12-03T01:38:29.558Z,20.30
2022-12-03T01:39:00.169Z,28.10
2022-12-03T01:39:30.732Z,28.20
2022-12-03T01:40:01.345Z,27.70
2022-12-03T01:40:31.927Z,25.40
2022-12-03T01:41:05.891Z,26.00
2022-12-03T01:41:33.287Z,25.60
2022-12-03T01:42:03.864Z,24.10
2022-12-03T01:42:34.483Z,27.40
2022-12-03T01:43:05.057Z,26.10
2022-12-03T01:43:35.639Z,28.10
2022-12-03T01:44:06.200Z,28.70
2022-12-03T01:44:36.777Z,26.80
2022-12-03T01:45:07.355Z,23.40
2022-12-03T01:45:37.959Z,23.40
2022-12-03T01:46:08.619Z,21.70
2022-12-03T01:46:39.327Z,24.30
2022-12-03T01:47:09.983Z,24.00
2022-12-03T01:47:40.577Z,28.70
2022-12-03T01:48:11.156Z,27.10
2022-12-03T01:48:41.741Z,25.20
2022-12-03T01:49:12.316Z,23.80
2022-12-03T01:49:42.926Z,22.10
2022-12-03T01:50:13.488Z,25.20
2022-12-03T01:50:44.069Z,26.40
2022-12-03T01:51:14.665Z,21.40
2022-12-03T01:51:45.262Z,28.20
2022-12-03T01:52:15.855Z,27.30
2022-12-03T01:52:46.443Z,25.60
2022-12-03T01:53:17.038Z,28.60
2022-12-03T01:53:47.619Z,22.90
2022-12-03T01:54:18.210Z,26.80
2022-12-03T01:54:48.798Z,21.40
2022-12-03T01:55:19.371Z,24.10
2022-12-03T01:55:49.954Z,24.70
2022-12-03T01:56:20.531Z,21.90
2022-12-03T01:56:51.141Z,24.70
2022-12-03T01:57:21.708Z,22.20
2022-12-03T01:57:52.282Z,21.10
2022-12-03T01:58:22.876Z,22.90
2022-12-03T01:58:53.477Z,26.40
2022-12-03T01:59:24.050Z,21.90
2022-12-03T01:59:54.632Z,22.90
2022-12-03T02:00:25.205Z,25.70
2022-12-03T02:00:55.802Z,24.00
2022-12-03T02:01:26.498Z,22.90
2022-12-03T02:01:57.102Z,27.60
2022-12-03T02:02:27.676Z,25.40
2022-12-03T02:02:58.247Z,25.40
2022-12-03T02:03:28.973Z,21.70
2022-12-03T02:03:59.655Z,26.30
2022-12-03T02:04:30.312Z,23.60
2022-12-03T02:05:00.900Z,26.60
2022-12-03T02:05:31.498Z,21.90
2022-12-03T02:06:02.119Z,20.50
2022-12-03T02:06:32.695Z,21.70
2022-12-03T02:07:03.286Z,24.00
2022-12-03T02:07:34.006Z,24.50
2022-12-03T02:08:04.679Z,23.30
2022-12-03T02:08:35.258Z,23.40
2022-12-03T02:09:05.857Z,26.70
2022-12-03T02:09:36.425Z,24.90
2022-12-03T02:10:06.981Z,24.80
2022-12-03T02:10:37.572Z,23.40
2022-12-03T02:11:08.203Z,24.70
2022-12-03T02:11:38.741Z,23.30
2022-12-03T02:12:09.318Z,26.30
2022-12-03T02:12:39.897Z,21.00
2022-12-03T02:13:10.475Z,24.30
2022-12-03T02:13:41.062Z,25.10
2022-12-03T02:14:11.650Z,22.90
2022-12-03T02:14:42.224Z,25.40
2022-12-03T02:15:12.791Z,27.30
2022-12-03T02:15:43.432Z,24.40
2022-12-03T02:16:14.170Z,23.70
2022-12-03T02:16:44.815Z,22.10
2022-12-03T02:17:15.374Z,23.40
2022-12-03T02:17:45.945Z,24.90
2022-12-03T02:18:16.514Z,28.40
2022-12-03T02:18:47.084Z,24.60
2022-12-03T02:19:17.634Z,26.20
2022-12-03T02:19:48.214Z,25.50
2022-12-03T02:20:18.770Z,24.20
2022-12-03T02:20:49.448Z,25.00
2022-12-03T02:21:20.019Z,31.50
2022-12-03T02:21:50.612Z,25.20
2022-12-03T02:22:21.195Z,27.30
2022-12-03T02:22:51.783Z,23.00
2022-12-03T02:23:22.382Z,25.10
2022-12-03T02:23:52.968Z,24.10
2022-12-03T02:24:23.546Z,23.70
2022-12-03T02:24:54.543Z,23.90
2022-12-03T02:25:24.696Z,25.40
2022-12-03T02:25:55.272Z,25.20
2022-12-03T02:26:25.857Z,23.20
2022-12-03T02:26:56.446Z,25.20
2022-12-03T02:27:27.041Z,22.90
2022-12-03T02:27:57.604Z,29.60
2022-12-03T02:28:28.181Z,23.60
2022-12-03T02:28:58.802Z,20.60
2022-12-03T02:29:29.388Z,22.70
2022-12-03T02:29:59.956Z,25.90
2022-12-03T02:30:30.520Z,25.30
2022-12-03T02:31:01.167Z,22.60
2022-12-03T02:31:31.904Z,31.30
2022-12-03T02:32:02.493Z,26.10
2022-12-03T02:32:33.053Z,26.00
2022-12-03T02:33:03.635Z,26.70
2022-12-03T02:33:34.226Z,27.40
2022-12-03T02:34:04.822Z,26.20
2022-12-03T02:34:35.388Z,28.10
2022-12-03T02:35:05.975Z,25.50
2022-12-03T02:35:36.538Z,23.50
2022-12-03T02:36:07.125Z,26.50
2022-12-03T02:36:37.712Z,24.80
2022-12-03T02:37:08.309Z,28.40
2022-12-03T02:37:38.899Z,24.90
2022-12-03T02:38:09.478Z,30.30
2022-12-03T02:38:40.036Z,25.10
2022-12-03T02:39:10.640Z,27.10
2022-12-03T02:39:41.228Z,27.80
2022-12-03T02:40:11.795Z,23.50
2022-12-03T02:40:42.375Z,24.70
2022-12-03T02:41:12.945Z,27.30
2022-12-03T02:41:43.502Z,26.90
2022-12-03T02:42:14.091Z,26.30
2022-12-03T02:42:44.696Z,26.60
2022-12-03T02:43:15.283Z,22.00
2022-12-03T02:43:45.889Z,22.80
2022-12-03T02:44:16.470Z,22.60
2022-12-03T02:44:47.062Z,27.00
2022-12-03T02:45:17.654Z,25.90
2022-12-03T02:45:48.245Z,24.60
2022-12-03T02:46:18.886Z,29.70
2022-12-03T02:46:49.606Z,25.10
2022-12-03T02:47:20.212Z,25.10
2022-12-03T02:47:50.777Z,26.20
2022-12-03T02:48:21.358Z,26.90
2022-12-03T02:48:51.936Z,27.10
2022-12-03T02:49:22.515Z,26.90
2022-12-03T02:49:53.102Z,27.90
2022-12-03T02:50:23.700Z,25.80
2022-12-03T02:50:54.270Z,30.30
2022-12-03T02:51:24.820Z,26.90
2022-12-03T02:51:55.419Z,24.50
2022-12-03T02:52:26.005Z,27.80
2022-12-03T02:52:56.593Z,24.70
2022-12-03T02:53:27.180Z,28.40
2022-12-03T02:53:57.748Z,27.50
2022-12-03T02:54:28.330Z,29.30
2022-12-03T02:54:58.896Z,24.00
2022-12-03T02:55:33.498Z,26.70
2022-12-03T02:56:00.271Z,26.40
2022-12-03T02:56:30.846Z,25.40
2022-12-03T02:57:01.442Z,23.40
2022-12-03T02:57:32.021Z,25.80
2022-12-03T02:58:02.584Z,27.60
2022-12-03T02:58:33.156Z,31.40
2022-12-03T02:59:03.736Z,27.00
2022-12-03T02:59:34.304Z,24.50
2022-12-03T03:00:04.903Z,26.90
2022-12-03T03:00:35.627Z,29.20
2022-12-03T03:01:06.364Z,24.20
2022-12-03T03:01:37.018Z,26.10
2022-12-03T03:02:07.638Z,25.10
2022-12-03T03:02:38.334Z,28.00
2022-12-03T03:03:08.901Z,25.20
2022-12-03T03:03:39.492Z,27.20
2022-12-03T03:04:10.067Z,26.00
2022-12-03T03:04:40.634Z,26.20
2022-12-03T03:05:11.214Z,24.40
2022-12-03T03:05:41.809Z,26.10
2022-12-03T03:06:12.434Z,29.30
2022-12-03T03:06:42.995Z,24.00
2022-12-03T03:07:13.552Z,28.60
2022-12-03T03:07:44.191Z,27.30
2022-12-03T03:08:14.875Z,25.10
2022-12-03T03:08:45.449Z,28.00
2022-12-03T03:09:16.039Z,27.10
2022-12-03T03:09:46.633Z,22.10
2022-12-03T03:10:17.174Z,22.90
2022-12-03T03:10:47.742Z,26.20
2022-12-03T03:11:18.324Z,21.80
2022-12-03T03:11:48.909Z,20.50
2022-12-03T03:12:19.467Z,24.50
2022-12-03T03:12:50.048Z,24.50
2022-12-03T03:13:20.595Z,25.40
2022-12-03T03:13:51.161Z,22.40
2022-12-03T03:14:21.733Z,24.60
2022-12-03T03:14:52.603Z,22.40
2022-12-03T03:15:23.347Z,24.00
2022-12-03T03:15:54.051Z,25.20
2022-12-03T03:16:24.717Z,20.50
2022-12-03T03:16:55.420Z,21.70
2022-12-03T03:17:26.007Z,25.00
2022-12-03T03:17:56.606Z,25.50
2022-12-03T03:18:27.164Z,26.60
2022-12-03T03:18:57.744Z,24.00
2022-12-03T03:19:28.323Z,20.40
2022-12-03T03:19:58.917Z,24.00
2022-12-03T03:20:29.492Z,19.70
2022-12-03T03:21:00.091Z,24.90
2022-12-03T03:21:30.666Z,22.80
2022-12-03T03:22:01.253Z,24.00
2022-12-03T03:22:31.820Z,21.50
2022-12-03T03:23:02.407Z,23.70
2022-12-03T03:23:33.000Z,26.00
2022-12-03T03:24:03.561Z,23.90
2022-12-03T03:24:34.130Z,24.50
2022-12-03T03:25:04.726Z,25.10
2022-12-03T03:25:35.310Z,24.10
2022-12-03T03:26:05.907Z,20.90
2022-12-03T03:26:36.462Z,26.10
2022-12-03T03:27:07.042Z,21.20
2022-12-03T03:27:37.725Z,21.50
2022-12-03T03:28:08.265Z,23.30
2022-12-03T03:28:38.843Z,21.60
2022-12-03T03:29:09.407Z,22.10
2022-12-03T03:29:39.981Z,23.50
2022-12-03T03:30:10.560Z,24.30
2022-12-03T03:30:41.143Z,23.10
2022-12-03T03:31:11.751Z,19.70
2022-12-03T03:31:42.462Z,22.20
2022-12-03T03:32:13.124Z,26.00
2022-12-03T03:32:43.729Z,25.10
2022-12-03T03:33:14.324Z,24.10
2022-12-03T03:33:44.873Z,19.90
2022-12-03T03:34:15.451Z,19.90
2022-12-03T03:34:46.038Z,23.80
2022-12-03T03:35:16.597Z,24.60
2022-12-03T03:35:47.162Z,22.40
2022-12-03T03:36:17.733Z,27.30
2022-12-03T03:36:48.314Z,24.30
2022-12-03T03:37:18.916Z,22.20
2022-12-03T03:37:49.493Z,26.00
2022-12-03T03:38:20.073Z,28.00
2022-12-03T03:38:50.644Z,23.00
2022-12-03T03:39:21.238Z,24.00
2022-12-03T03:39:51.822Z,24.40
2022-12-03T03:40:22.389Z,26.50
2022-12-03T03:40:52.997Z,25.90
2022-12-03T03:41:23.562Z,26.70
2022-12-03T03:41:54.166Z,26.10
2022-12-03T03:42:24.734Z,25.10
2022-12-03T03:42:55.304Z,24.90
2022-12-03T03:43:25.903Z,23.30
2022-12-03T03:43:56.466Z,25.00
2022-12-03T03:44:27.057Z,25.00
2022-12-03T03:44:57.651Z,26.10
2022-12-03T03:45:29.632Z,25.80
2022-12-03T03:45:58.869Z,27.30
2022-12-03T03:46:29.538Z,32.80
2022-12-03T03:47:00.350Z,27.50
2022-12-03T03:47:30.944Z,29.00
2022-12-03T03:48:01.522Z,30.20
2022-12-03T03:48:32.109Z,27.90
2022-12-03T03:49:02.684Z,29.40
2022-12-03T03:49:33.287Z,27.30
2022-12-03T03:50:03.859Z,32.60
2022-12-03T03:50:34.435Z,24.90
2022-12-03T03:51:05.018Z,23.20
2022-12-03T03:51:35.618Z,30.60
2022-12-03T03:52:06.193Z,28.20
2022-12-03T03:52:36.787Z,26.70
2022-12-03T03:53:07.375Z,29.90
2022-12-03T03:53:37.949Z,32.60
2022-12-03T03:54:08.563Z,31.50
2022-12-03T03:54:39.117Z,24.50
2022-12-03T03:55:09.685Z,26.50
2022-12-03T03:55:40.257Z,22.20
2022-12-03T03:56:10.838Z,24.90
2022-12-03T03:56:41.453Z,25.30
2022-12-03T03:57:12.040Z,25.30
2022-12-03T03:57:42.653Z,26.10
2022-12-03T03:58:13.230Z,23.60
2022-12-03T03:58:43.817Z,27.70
2022-12-03T03:59:14.391Z,26.30
2022-12-03T03:59:44.974Z,23.90
2022-12-03T04:00:15.546Z,25.60
2022-12-03T04:00:46.244Z,28.00
2022-12-03T04:01:16.913Z,30.60
2022-12-03T04:01:47.575Z,25.70
2022-12-03T04:02:18.168Z,24.30
2022-12-03T04:02:48.744Z,28.00
2022-12-03T04:03:19.336Z,31.30
2022-12-03T04:03:50.027Z,28.20
2022-12-03T04:04:20.690Z,31.20
2022-12-03T04:04:51.676Z,26.60
2022-12-03T04:05:21.980Z,31.00
2022-12-03T04:05:52.553Z,26.60
2022-12-03T04:06:23.145Z,26.70
2022-12-03T04:06:53.709Z,29.60
2022-12-03T04:07:24.434Z,29.50
2022-12-03T04:07:55.072Z,31.00
2022-12-03T04:08:25.627Z,30.60
2022-12-03T04:08:56.222Z,27.60
2022-12-03T04:09:26.795Z,26.70
2022-12-03T04:09:57.371Z,27.90
2022-12-03T04:10:27.961Z,33.10
2022-12-03T04:10:58.546Z,26.20
2022-12-03T04:11:29.131Z,32.60
2022-12-03T04:11:59.715Z,30.50
2022-12-03T04:12:30.281Z,28.60
2022-12-03T04:13:00.856Z,29.00
2022-12-03T04:13:31.409Z,26.80
2022-12-03T04:14:01.980Z,26.90
2022-12-03T04:14:32.579Z,32.00
2022-12-03T04:15:03.132Z,31.40
2022-12-03T04:15:33.691Z,31.00
2022-12-03T04:16:04.320Z,29.80
2022-12-03T04:16:34.977Z,32.90
2022-12-03T04:17:05.553Z,32.80
2022-12-03T04:17:36.101Z,31.30
2022-12-03T04:18:06.666Z,30.40
2022-12-03T04:18:37.241Z,31.00
2022-12-03T04:19:07.862Z,32.10
2022-12-03T04:19:38.410Z,34.50
2022-12-03T04:20:08.966Z,31.80
2022-12-03T04:20:39.519Z,29.00
2022-12-03T04:21:10.079Z,30.40
2022-12-03T04:21:40.653Z,36.60
2022-12-03T04:22:11.230Z,29.10
2022-12-03T04:22:41.813Z,27.30
2022-12-03T04:23:12.371Z,30.80
2022-12-03T04:23:42.995Z,28.70
2022-12-03T04:24:13.577Z,34.10
2022-12-03T04:24:44.148Z,33.40
2022-12-03T04:25:14.762Z,29.10
2022-12-03T04:25:45.315Z,34.80
2022-12-03T04:26:15.907Z,35.00
2022-12-03T04:26:46.503Z,34.90
2022-12-03T04:27:17.072Z,35.00
2022-12-03T04:27:47.657Z,29.60
2022-12-03T04:28:18.241Z,23.70
2022-12-03T04:28:48.865Z,32.30
2022-12-03T04:29:19.430Z,29.20
2022-12-03T04:29:50.013Z,25.70
2022-12-03T04:30:20.558Z,28.90
2022-12-03T04:30:51.198Z,30.30
2022-12-03T04:31:21.916Z,24.80
2022-12-03T04:31:52.506Z,26.40
2022-12-03T04:32:23.071Z,26.50
2022-12-03T04:32:53.682Z,26.90
2022-12-03T04:33:24.255Z,26.10
2022-12-03T04:33:54.836Z,31.90
2022-12-03T04:34:25.446Z,25.00
2022-12-03T04:34:56.273Z,22.50
2022-12-03T04:35:26.562Z,31.00
2022-12-03T04:35:57.138Z,30.20
2022-12-03T04:36:27.710Z,29.10
2022-12-03T04:36:58.304Z,26.40
2022-12-03T04:37:28.873Z,26.00
2022-12-03T04:37:59.439Z,28.30
2022-12-03T04:38:30.013Z,32.60
2022-12-03T04:39:00.582Z,29.70
2022-12-03T04:39:31.183Z,27.20
2022-12-03T04:40:01.764Z,25.80
2022-12-03T04:40:32.347Z,25.30
2022-12-03T04:41:02.938Z,26.40
2022-12-03T04:41:33.526Z,31.70
2022-12-03T04:42:04.120Z,30.80
2022-12-03T04:42:34.680Z,30.80
2022-12-03T04:43:05.247Z,27.40
2022-12-03T04:43:35.821Z,30.30
2022-12-03T04:44:06.398Z,28.30
2022-12-03T04:44:37.005Z,35.50
2022-12-03T04:45:07.565Z,29.00
2022-12-03T04:45:38.205Z,30.00
2022-12-03T04:46:08.900Z,24.90
2022-12-03T04:46:39.485Z,32.10
2022-12-03T04:47:10.064Z,27.60
2022-12-03T04:47:40.652Z,26.10
2022-12-03T04:48:11.237Z,33.50
2022-12-03T04:48:41.826Z,24.30
2022-12-03T04:49:12.383Z,31.50
2022-12-03T04:49:43.001Z,36.10
2022-12-03T04:50:13.560Z,30.00
2022-12-03T04:50:44.180Z,33.60
2022-12-03T04:51:14.789Z,28.60
2022-12-03T04:51:45.349Z,28.60
2022-12-03T04:52:15.924Z,27.30
2022-12-03T04:52:46.511Z,27.30
2022-12-03T04:53:17.099Z,31.60
2022-12-03T04:53:47.714Z,25.50
2022-12-03T04:54:18.300Z,27.80
2022-12-03T04:54:48.850Z,25.60
2022-12-03T04:55:19.414Z,32.00
2022-12-03T04:55:50.007Z,25.70
2022-12-03T04:56:20.584Z,30.00
2022-12-03T04:56:51.162Z,26.80
2022-12-03T04:57:21.784Z,27.20
2022-12-03T04:57:52.402Z,29.10
2022-12-03T04:58:22.975Z,27.70
2022-12-03T04:58:53.551Z,27.50
2022-12-03T04:59:24.134Z,30.40
2022-12-03T04:59:54.709Z,28.60
2022-12-03T05:00:25.290Z,30.00
2022-12-03T05:00:55.982Z,27.30
2022-12-03T05:01:26.622Z,24.20
2022-12-03T05:01:57.171Z,27.90
2022-12-03T05:02:27.790Z,27.00
2022-12-03T05:02:58.461Z,24.50
2022-12-03T05:03:29.046Z,28.20
2022-12-03T05:03:59.613Z,28.90
2022-12-03T05:04:30.213Z,25.70
2022-12-03T05:05:00.812Z,25.50
2022-12-03T05:05:31.381Z,23.30
2022-12-03T05:06:01.958Z,31.10
2022-12-03T05:06:32.525Z,26.40
2022-12-03T05:07:03.105Z,26.70
2022-12-03T05:07:33.872Z,21.30
2022-12-03T05:08:04.505Z,27.20
2022-12-03T05:08:35.067Z,27.60
2022-12-03T05:09:05.653Z,28.80
2022-12-03T05:09:36.221Z,24.30
2022-12-03T05:10:06.816Z,25.10
2022-12-03T05:10:37.400Z,25.30
2022-12-03T05:11:07.980Z,27.10
2022-12-03T05:11:38.555Z,25.00
2022-12-03T05:12:09.134Z,30.10
2022-12-03T05:12:39.730Z,24.60
2022-12-03T05:13:10.288Z,24.90
2022-12-03T05:13:42.917Z,22.70
2022-12-03T05:14:11.620Z,28.20
2022-12-03T05:14:42.182Z,28.30
2022-12-03T05:15:12.765Z,27.20
2022-12-03T05:15:43.345Z,30.60
2022-12-03T05:16:13.984Z,24.20
2022-12-03T05:16:44.689Z,24.40
2022-12-03T05:17:15.269Z,28.10
2022-12-03T05:17:45.857Z,23.90
2022-12-03T05:18:16.416Z,22.40
2022-12-03T05:18:47.024Z,27.10
2022-12-03T05:19:17.622Z,25.90
2022-12-03T05:19:48.206Z,29.30
2022-12-03T05:20:18.816Z,23.90
2022-12-03T05:20:53.232Z,30.40
2022-12-03T05:21:20.114Z,25.30
2022-12-03T05:21:50.744Z,25.20
2022-12-03T05:22:21.315Z,22.90
2022-12-03T05:22:51.970Z,22.80
2022-12-03T05:23:22.548Z,25.70
2022-12-03T05:23:53.107Z,24.00
2022-12-03T05:24:23.661Z,22.70
2022-12-03T05:24:54.443Z,22.50
2022-12-03T05:25:25.160Z,23.90
2022-12-03T05:25:55.751Z,23.40
2022-12-03T05:26:26.310Z,25.30
2022-12-03T05:26:56.900Z,24.90
2022-12-03T05:27:27.504Z,25.60
2022-12-03T05:27:58.097Z,27.10
2022-12-03T05:28:28.684Z,25.20
2022-12-03T05:28:59.277Z,24.00
2022-12-03T05:29:29.871Z,28.60
2022-12-03T05:30:00.462Z,28.80
2022-12-03T05:30:31.101Z,23.20
2022-12-03T05:31:01.856Z,24.60
2022-12-03T05:31:32.416Z,24.20
2022-12-03T05:32:02.981Z,32.10
2022-12-03T05:32:33.573Z,20.80
2022-12-03T05:33:04.144Z,29.20
2022-12-03T05:33:37.314Z,25.40
2022-12-03T05:34:05.500Z,25.90
2022-12-03T05:34:36.082Z,21.00
2022-12-03T05:35:06.691Z,26.10
2022-12-03T05:35:37.312Z,26.50
2022-12-03T05:36:07.871Z,21.70
2022-12-03T05:36:38.435Z,26.60
2022-12-03T05:37:08.984Z,21.20
2022-12-03T05:37:39.578Z,27.30
2022-12-03T05:38:10.186Z,23.70
2022-12-03T05:38:40.774Z,25.40
2022-12-03T05:39:11.346Z,25.10
2022-12-03T05:39:41.915Z,25.20
2022-12-03T05:40:12.458Z,22.30
2022-12-03T05:40:43.100Z,22.40
2022-12-03T05:41:13.644Z,21.00
2022-12-03T05:41:44.225Z,21.20
2022-12-03T05:42:14.809Z,22.80
2022-12-03T05:42:45.369Z,20.60
2022-12-03T05:43:15.940Z,22.30
2022-12-03T05:43:46.520Z,24.10
2022-12-03T05:44:20.462Z,24.40
2022-12-03T05:44:47.744Z,23.10
2022-12-03T05:45:18.297Z,23.00
2022-12-03T05:45:48.920Z,19.60
2022-12-03T05:46:19.585Z,25.00
2022-12-03T05:46:50.151Z,24.50
2022-12-03T05:47:20.725Z,24.40
2022-12-03T05:47:51.314Z,26.80
2022-12-03T05:48:21.885Z,23.20
2022-12-03T05:48:52.454Z,25.90
2022-12-03T05:49:23.047Z,23.30
2022-12-03T05:49:53.613Z,21.60
2022-12-03T05:50:24.218Z,17.30
2022-12-03T05:50:54.821Z,18.30
2022-12-03T05:51:25.400Z,22.90
2022-12-03T05:51:58.750Z,24.70
2022-12-03T05:52:26.878Z,24.90
2022-12-03T05:52:57.448Z,24.50
2022-12-03T05:53:28.044Z,23.00
2022-12-03T05:53:58.609Z,24.80
2022-12-03T05:54:29.202Z,23.70
2022-12-03T05:54:59.849Z,21.70
2022-12-03T05:55:30.422Z,20.40
2022-12-03T05:56:01.037Z,20.10
2022-12-03T05:56:31.628Z,26.60
2022-12-03T05:57:02.189Z,19.80
2022-12-03T05:57:32.772Z,20.60
2022-12-03T05:58:03.359Z,21.80
2022-12-03T05:58:33.967Z,18.70
2022-12-03T05:59:04.561Z,21.80
2022-12-03T05:59:35.185Z,21.30
2022-12-03T06:00:05.741Z,20.20
2022-12-03T06:00:41.845Z,22.30
2022-12-03T06:01:07.116Z,20.60
2022-12-03T06:01:37.703Z,16.60
2022-12-03T06:02:08.332Z,18.10
2022-12-03T06:02:39.085Z,21.20
2022-12-03T06:03:09.968Z,21.70
2022-12-03T06:03:40.824Z,21.00
2022-12-03T06:04:11.495Z,20.10
2022-12-03T06:04:42.069Z,17.00
2022-12-03T06:05:12.633Z,21.50
2022-12-03T06:05:43.194Z,24.30
2022-12-03T06:06:13.779Z,21.30
2022-12-03T06:06:44.311Z,21.30
2022-12-03T06:07:14.889Z,22.80
2022-12-03T06:07:45.590Z,21.60
2022-12-03T06:08:16.250Z,19.90
2022-12-03T06:08:46.836Z,20.00
2022-12-03T06:09:17.417Z,18.80
2022-12-03T06:09:48.016Z,20.10
2022-12-03T06:10:18.570Z,19.30
2022-12-03T06:10:49.151Z,23.50
2022-12-03T06:11:19.736Z,21.00
2022-12-03T06:11:50.315Z,16.20
2022-12-03T06:12:20.882Z,18.90
2022-12-03T06:12:51.460Z,19.80
2022-12-03T06:13:22.034Z,24.30
2022-12-03T06:13:52.643Z,18.50
2022-12-03T06:14:23.193Z,22.30
2022-12-03T06:14:54.038Z,20.40
2022-12-03T06:15:24.750Z,20.90
2022-12-03T06:15:55.437Z,19.10
2022-12-03T06:16:26.076Z,18.90
2022-12-03T06:16:56.690Z,17.70
2022-12-03T06:17:27.265Z,17.10
2022-12-03T06:17:57.842Z,19.50
2022-12-03T06:18:28.419Z,18.30
2022-12-03T06:18:59.007Z,20.00
2022-12-03T06:19:29.576Z,21.30
2022-12-03T06:20:00.169Z,19.70
2022-12-03T06:20:30.731Z,16.70
2022-12-03T06:21:01.335Z,20.70
2022-12-03T06:21:31.928Z,19.50
2022-12-03T06:22:02.487Z,18.10
2022-12-03T06:22:33.091Z,17.70
2022-12-03T06:23:03.674Z,21.90
2022-12-03T06:23:34.240Z,16.80
2022-12-03T06:24:04.835Z,17.00
2022-12-03T06:24:35.394Z,16.40
2022-12-03T06:25:07.392Z,20.90
2022-12-03T06:25:36.977Z,19.60
2022-12-03T06:26:07.563Z,18.00
2022-12-03T06:26:38.137Z,18.90
2022-12-03T06:27:08.701Z,20.00
2022-12-03T06:27:39.270Z,20.80
2022-12-03T06:28:09.858Z,16.30
2022-12-03T06:28:40.441Z,18.80
2022-12-03T06:29:10.987Z,16.70
2022-12-03T06:29:41.573Z,17.20
2022-12-03T06:30:12.145Z,19.90
2022-12-03T06:30:42.739Z,17.70
2022-12-03T06:31:13.371Z,16.10
2022-12-03T06:31:44.061Z,16.70
2022-12-03T06:32:14.625Z,20.90
2022-12-03T06:32:45.164Z,16.40
2022-12-03T06:33:15.738Z,16.50
2022-12-03T06:33:46.303Z,16.00